Time;durP1;ratioP1;P1;durP2;ratioP2;P2;SDS_P1;SDS_P2;PMS_P1;PMS_P2;Temp;Humidity;BMP_temperature;BMP_pressure;BME280_temperature;BME280_humidity;BME280_pressure;Samples;Min_cycle;Max_cycle;Signal;HPM_P1;HPM_P2
2022/03/14 00:01:17;;;;;;;51.50;23.93;;;1.10;60.00;;;0.73;47.64;96161.97;4930424;29;20452;-56
2022/03/14 00:03:55;;;;;;;50.07;23.13;;;1.10;59.90;;;0.73;47.77;96168.88;4943853;29;20493;-54
2022/03/14 00:06:23;;;;;;;47.33;20.60;;;1.10;59.50;;;0.70;47.63;96173.25;4927835;29;20497;-59
2022/03/14 00:08:55;;;;;;;52.07;19.80;;;1.10;60.80;;;0.67;48.38;96169.94;4937765;29;20480;-60
2022/03/14 00:11:23;;;;;;;40.57;20.53;;;1.00;59.90;;;0.65;48.07;96171.69;4938192;29;20815;-57
2022/03/14 00:13:50;;;;;;;48.40;21.63;;;1.00;60.20;;;0.62;47.41;96182.16;4942463;29;20621;-57
2022/03/14 00:16:23;;;;;;;58.43;23.90;;;1.00;59.90;;;0.58;48.06;96178.81;4929770;29;20879;-60
2022/03/14 00:18:51;;;;;;;56.60;22.53;;;0.90;60.40;;;0.56;49.00;96184.91;4933818;29;20500;-60
2022/03/14 00:21:23;;;;;;;44.07;20.60;;;0.90;60.70;;;0.51;48.96;96180.75;4936606;29;20465;-57
2022/03/14 00:23:52;;;;;;;49.17;21.23;;;0.90;60.60;;;0.49;48.80;96177.34;4936374;29;20485;-56
2022/03/14 00:26:19;;;;;;;46.20;21.90;;;0.80;61.30;;;0.46;49.50;96179.19;4935949;28;20463;-59
2022/03/14 00:28:47;;;;;;;45.83;21.10;;;0.80;61.30;;;0.45;48.05;96182.66;4933688;29;20485;-59
2022/03/14 00:31:14;;;;;;;44.13;19.70;;;0.80;60.80;;;0.44;47.78;96184.41;4934455;29;20481;-59
2022/03/14 00:33:42;;;;;;;47.97;22.90;;;0.80;60.10;;;0.44;47.66;96184.41;4943958;29;20574;-59
2022/03/14 00:36:09;;;;;;;44.00;21.30;;;0.80;60.40;;;0.44;48.38;96197.34;4935722;29;20476;-59
2022/03/14 00:38:37;;;;;;;41.50;20.17;;;0.80;61.30;;;0.42;48.70;96200.88;4930703;29;20477;-56
2022/03/14 00:41:06;;;;;;;36.13;17.77;;;0.80;61.60;;;0.39;49.18;96201.81;4934473;29;20563;-60
2022/03/14 00:43:34;;;;;;;38.47;18.47;;;0.80;61.90;;;0.37;49.00;96195.00;4937047;29;20476;-60
2022/03/14 00:46:01;;;;;;;38.07;18.13;;;0.80;61.60;;;0.32;49.38;96195.97;4938550;29;20488;-58
2022/03/14 00:48:30;;;;;;;37.27;17.17;;;0.70;61.90;;;0.31;48.87;96201.19;4934889;29;20498;-55
2022/03/14 00:50:58;;;;;;;30.03;16.53;;;0.70;61.70;;;0.28;48.57;96209.91;4941054;28;20465;-58
2022/03/14 00:53:25;;;;;;;29.80;16.50;;;0.70;61.80;;;0.26;49.35;96203.91;4943105;28;20834;-55
2022/03/14 00:55:52;;;;;;;34.70;16.50;;;0.60;62.00;;;0.24;48.88;96200.53;4937861;29;20449;-60
2022/03/14 00:58:21;;;;;;;34.97;17.43;;;0.60;61.90;;;0.23;49.27;96211.75;4931588;29;20496;-59
2022/03/14 01:00:49;;;;;;;37.53;18.03;;;0.60;62.40;;;0.22;49.23;96207.50;4935870;29;20484;-59
2022/03/14 01:03:16;;;;;;;37.43;16.00;;;0.60;62.00;;;0.22;49.83;96194.56;4931120;29;20473;-60
2022/03/14 01:05:44;;;;;;;31.93;17.50;;;0.60;62.80;;;0.22;49.41;96206.63;4942331;28;20491;-56
2022/03/14 01:08:11;;;;;;;39.90;15.33;;;0.60;62.60;;;0.19;49.13;96210.16;4932130;29;20477;-57
2022/03/14 01:10:38;;;;;;;30.17;15.77;;;0.60;62.40;;;0.16;49.24;96208.50;4937638;29;20795;-59
2022/03/14 01:13:06;;;;;;;41.10;17.47;;;0.50;61.80;;;0.13;48.96;96216.34;4940537;28;20484;-60
2022/03/14 01:15:35;;;;;;;38.30;17.20;;;0.50;62.10;;;0.09;49.11;96212.13;4943977;28;20475;-58
2022/03/14 01:18:02;;;;;;;34.57;17.63;;;0.50;62.40;;;0.09;49.31;96213.88;4930260;28;20473;-56
2022/03/14 01:20:29;;;;;;;31.83;15.77;;;0.50;62.30;;;0.07;48.78;96211.34;4934698;29;20493;-56
2022/03/14 01:22:57;;;;;;;41.53;16.67;;;0.40;62.00;;;0.06;49.09;96211.38;4934858;29;20481;-53
2022/03/14 01:25:24;;;;;;;33.97;17.47;;;0.40;61.90;;;0.05;48.85;96218.31;4938068;28;20457;-60
2022/03/14 01:27:51;;;;;;;31.80;16.80;;;0.40;62.00;;;0.04;49.50;96220.94;4941768;29;20560;-58
2022/03/14 01:30:19;;;;;;;32.70;15.10;;;0.40;62.10;;;0.01;49.12;96219.28;4933158;29;20893;-56
2022/03/14 01:32:48;;;;;;;32.53;17.07;;;0.40;61.70;;;-0.01;48.98;96219.31;4936231;28;20561;-55
2022/03/14 01:35:17;;;;;;;32.90;16.70;;;0.30;62.00;;;-0.03;49.25;96217.69;4929155;28;20467;-55
2022/03/14 01:37:47;;;;;;;37.17;18.00;;;0.40;62.20;;;-0.05;49.10;96224.63;4937699;29;20496;-55
2022/03/14 01:40:14;;;;;;;39.57;18.47;;;0.30;61.90;;;-0.10;48.71;96221.31;4932768;29;20481;-58
2022/03/14 01:42:42;;;;;;;36.10;18.17;;;0.30;62.60;;;-0.09;48.60;96221.28;4932974;29;20480;-59
2022/03/14 01:45:10;;;;;;;39.87;19.63;;;0.30;61.30;;;-0.10;48.80;96224.75;4939962;29;20464;-60
2022/03/14 01:47:38;;;;;;;45.17;20.80;;;0.30;61.80;;;-0.09;48.98;96223.03;4937492;29;21013;-60
2022/03/14 01:50:08;;;;;;;44.50;20.30;;;0.20;62.00;;;-0.09;48.79;96226.44;4931469;29;20463;-56
2022/03/14 01:52:35;;;;;;;39.40;18.83;;;0.30;62.10;;;-0.08;48.63;96237.63;4935058;29;20477;-61
2022/03/14 01:55:03;;;;;;;45.37;19.40;;;0.30;61.60;;;-0.07;48.59;96237.59;4937529;29;20468;-59
2022/03/14 01:57:31;;;;;;;45.80;19.97;;;0.30;61.50;;;-0.06;49.12;96236.72;4940017;29;20559;-59
2022/03/14 01:59:59;;;;;;;42.10;20.57;;;0.30;62.20;;;-0.03;49.19;96244.38;4928174;28;20498;-59
2022/03/14 02:02:26;;;;;;;36.07;19.00;;;0.30;62.80;;;-0.03;49.35;96246.13;4933508;29;20487;-59
2022/03/14 02:04:53;;;;;;;45.20;19.80;;;0.30;63.00;;;-0.05;49.16;96237.53;4936851;29;20472;-58
2022/03/14 02:07:23;;;;;;;41.00;18.10;;;0.30;63.00;;;-0.07;49.75;96237.59;4941396;28;20485;-55
2022/03/14 02:09:50;;;;;;;45.40;19.00;;;0.30;64.00;;;-0.08;49.82;96246.25;4933327;29;20450;-55
2022/03/14 02:12:18;;;;;;;40.00;19.00;;;0.30;64.00;;;-0.09;49.43;96248.88;4931583;28;20453;-56
2022/03/14 02:14:45;;;;;;;39.13;17.97;;;0.30;63.80;;;-0.11;49.35;96248.91;4938257;29;20474;-58
2022/03/14 02:17:17;;;;;;;34.33;17.67;;;0.30;63.60;;;-0.13;49.85;96255.84;4935803;29;20544;-57
2022/03/14 02:19:45;;;;;;;41.70;19.90;;;0.30;63.20;;;-0.11;49.58;96253.22;4934686;28;20834;-61
2022/03/14 02:22:14;;;;;;;48.80;21.60;;;0.30;63.60;;;-0.12;50.00;96254.13;4930519;29;20844;-59
2022/03/14 02:24:42;;;;;;;41.90;21.23;;;0.30;64.00;;;-0.13;49.73;96250.69;4932529;29;20903;-56
2022/03/14 02:27:09;;;;;;;48.17;21.00;;;0.20;63.30;;;-0.14;49.77;96263.66;4939697;29;20461;-56
2022/03/14 02:29:37;;;;;;;44.30;23.00;;;0.20;63.90;;;-0.17;50.41;96262.00;4946526;29;20472;-54
2022/03/14 02:32:05;;;;;;;44.43;21.43;;;0.20;64.40;;;-0.20;50.63;96267.25;4929926;29;20568;-56
2022/03/14 02:34:33;;;;;;;49.47;22.03;;;0.20;64.50;;;-0.24;50.39;96265.63;4934318;29;20836;-59
2022/03/14 02:37:02;;;;;;;47.17;22.33;;;0.10;64.80;;;-0.28;50.25;96269.19;4935392;29;20454;-59
2022/03/14 02:39:32;;;;;;;43.90;22.43;;;0.10;64.60;;;-0.30;49.89;96269.22;4943542;28;20889;-56
2022/03/14 02:42:00;;;;;;;47.03;22.80;;;0.10;64.30;;;-0.33;50.54;96277.06;4929933;28;20457;-60
2022/03/14 02:44:28;;;;;;;42.30;19.00;;;0.10;65.30;;;-0.37;50.31;96283.19;4939154;28;20496;-57
2022/03/14 02:46:55;;;;;;;41.63;20.00;;;0.00;65.10;;;-0.41;50.04;96289.31;4940225;28;20448;-54
2022/03/14 02:49:22;;;;;;;38.17;19.47;;;0.00;64.70;;;-0.43;49.95;96289.38;4940549;29;20481;-56
2022/03/14 02:51:51;;;;;;;45.10;20.40;;;-0.10;64.60;;;-0.45;50.83;96291.16;4926819;29;20834;-56
2022/03/14 02:54:19;;;;;;;37.70;20.17;;;-0.10;64.80;;;-0.48;50.57;96291.22;4934214;29;20910;-59
2022/03/14 02:56:47;;;;;;;39.80;21.60;;;-0.10;65.20;;;-0.50;50.49;96287.81;4940561;29;20460;-59
2022/03/14 02:59:15;;;;;;;41.47;21.30;;;-0.10;65.20;;;-0.50;50.42;96297.31;4945015;28;20499;-57
2022/03/14 03:01:42;;;;;;;46.73;21.70;;;-0.10;65.30;;;-0.52;50.45;96294.75;4938124;28;20485;-56
2022/03/14 03:04:10;;;;;;;39.87;20.33;;;-0.10;65.10;;;-0.51;50.24;96309.38;4937566;29;20552;-56
2022/03/14 03:06:38;;;;;;;43.57;21.07;;;-0.10;64.90;;;-0.50;50.66;96302.47;4934412;29;20533;-56
2022/03/14 03:09:05;;;;;;;46.07;21.10;;;-0.10;65.20;;;-0.52;50.74;96305.09;4941620;29;20513;-59
2022/03/14 03:11:33;;;;;;;40.33;20.57;;;-0.10;65.40;;;-0.52;50.54;96310.25;4938932;29;20455;-57
2022/03/14 03:14:02;;;;;;;37.70;19.03;;;-0.10;65.60;;;-0.57;50.66;96304.38;4934901;29;20481;-59
2022/03/14 03:16:29;;;;;;;33.30;18.63;;;-0.20;65.60;;;-0.62;50.96;96309.66;4939267;29;20457;-56
2022/03/14 03:18:56;;;;;;;34.93;18.83;;;-0.20;66.20;;;-0.66;50.58;96314.91;4942071;28;20482;-59
2022/03/14 03:21:24;;;;;;;32.37;18.70;;;-0.30;65.70;;;-0.70;50.63;96315.88;4939564;28;20554;-53
2022/03/14 03:23:51;;;;;;;38.10;19.00;;;-0.30;65.70;;;-0.73;50.77;96317.66;4936096;28;20484;-60
2022/03/14 03:26:19;;;;;;;30.73;17.07;;;-0.30;65.80;;;-0.76;50.92;96322.00;4936726;28;20472;-60
2022/03/14 03:28:46;;;;;;;32.30;18.37;;;-0.40;65.90;;;-0.79;51.03;96317.78;4943536;29;20492;-60
2022/03/14 03:31:18;;;;;;;37.30;19.63;;;-0.40;66.50;;;-0.84;51.76;96323.94;4937461;29;20546;-55
2022/03/14 03:33:47;;;;;;;38.03;20.10;;;-0.40;67.20;;;-0.87;51.17;96326.59;4931504;29;20488;-56
2022/03/14 03:36:14;;;;;;;29.53;17.13;;;-0.50;66.60;;;-0.93;51.74;96322.41;4934034;29;21002;-59
2022/03/14 03:38:42;;;;;;;38.57;18.33;;;-0.50;67.20;;;-0.96;51.76;96327.63;4937818;28;20881;-57
2022/03/14 03:41:09;;;;;;;34.83;19.63;;;-0.60;67.00;;;-1.00;51.57;96329.44;4939749;29;20563;-56
2022/03/14 03:43:36;;;;;;;43.57;20.37;;;-0.60;67.50;;;-1.01;51.64;96334.63;4940649;28;20501;-60
2022/03/14 03:46:03;;;;;;;44.10;22.03;;;-0.60;67.70;;;-1.02;51.18;96336.38;4935072;29;20464;-59
2022/03/14 03:48:32;;;;;;;38.20;20.63;;;-0.60;67.80;;;-1.03;51.87;96342.41;4940562;29;20855;-56
2022/03/14 03:51:00;;;;;;;38.00;19.77;;;-0.60;67.50;;;-1.05;51.55;96340.72;4938031;29;20457;-57
2022/03/14 03:53:27;;;;;;;39.73;21.63;;;-0.60;67.90;;;-1.05;51.62;96338.16;4938889;28;20554;-56
2022/03/14 03:55:55;;;;;;;39.10;18.97;;;-0.60;67.50;;;-1.06;51.55;96344.22;4933210;29;20880;-59
2022/03/14 03:58:22;;;;;;;44.03;21.77;;;-0.70;67.30;;;-1.05;51.88;96348.47;4938273;29;20487;-59
2022/03/14 04:00:49;;;;;;;42.43;19.37;;;-0.70;67.50;;;-1.05;51.76;96351.06;4937448;28;20921;-60
2022/03/14 04:03:20;;;;;;;44.07;22.00;;;-0.60;67.90;;;-1.08;51.37;96350.25;4945348;29;20468;-60
2022/03/14 04:05:48;;;;;;;44.27;19.50;;;-0.70;67.30;;;-1.06;52.14;96360.56;4937134;28;20449;-57
2022/03/14 04:08:16;;;;;;;48.73;22.37;;;-0.70;68.20;;;-1.06;52.27;96364.88;4934582;29;20487;-56
2022/03/14 04:10:44;;;;;;;37.90;19.20;;;-0.70;68.50;;;-1.08;52.51;96355.41;4939765;29;20845;-60
2022/03/14 04:13:14;;;;;;;36.93;20.40;;;-0.70;68.80;;;-1.08;52.13;96363.16;4942645;28;20565;-60
2022/03/14 04:15:43;;;;;;;50.27;21.03;;;-0.70;68.90;;;-1.08;51.55;96373.50;4929456;28;20448;-57
2022/03/14 04:18:11;;;;;;;41.90;19.80;;;-0.70;68.40;;;-1.07;52.46;96369.16;4934036;29;20573;-59
2022/03/14 04:20:41;;;;;;;47.53;21.27;;;-0.70;68.90;;;-1.10;52.31;96370.09;4936811;28;20566;-58
2022/03/14 04:23:09;;;;;;;40.43;20.17;;;-0.70;69.30;;;-1.11;51.65;96376.13;4939467;29;20515;-59
2022/03/14 04:25:37;;;;;;;46.53;21.60;;;-0.70;68.60;;;-1.11;51.91;96380.47;4933625;28;20458;-59
2022/03/14 04:28:05;;;;;;;35.63;18.77;;;-0.70;68.80;;;-1.13;52.18;96379.63;4936151;29;21025;-58
2022/03/14 04:30:33;;;;;;;48.60;21.70;;;-0.70;69.40;;;-1.14;52.52;96377.94;4940035;29;20461;-59
2022/03/14 04:33:00;;;;;;;42.03;20.40;;;-0.70;69.50;;;-1.15;52.65;96382.25;4943929;28;20566;-58
2022/03/14 04:35:28;;;;;;;32.90;19.23;;;-0.70;69.70;;;-1.15;52.50;96384.81;4942931;28;20465;-57
2022/03/14 04:37:55;;;;;;;42.80;21.23;;;-0.70;69.70;;;-1.17;52.39;96390.91;4930369;29;20501;-60
2022/03/14 04:40:24;;;;;;;53.30;22.53;;;-0.70;69.40;;;-1.19;52.17;96393.53;4936058;29;20612;-56
2022/03/14 04:42:51;;;;;;;45.43;20.77;;;-0.70;69.70;;;-1.21;52.39;96390.09;4936262;29;20488;-54
2022/03/14 04:45:19;;;;;;;48.50;21.03;;;-0.80;69.60;;;-1.21;52.97;96400.44;4933364;29;20468;-56
2022/03/14 04:47:46;;;;;;;49.30;21.30;;;-0.80;70.30;;;-1.20;52.70;96399.56;4934049;28;20564;-57
2022/03/14 04:50:14;;;;;;;49.90;21.10;;;-0.80;69.70;;;-1.20;52.24;96407.31;4936403;29;20452;-58
2022/03/14 04:52:41;;;;;;;43.50;18.37;;;-0.80;69.60;;;-1.18;52.89;96412.44;4937417;28;21348;-58
2022/03/14 04:55:10;;;;;;;44.30;21.23;;;-0.80;70.30;;;-1.19;52.18;96419.34;4937696;28;20461;-62
2022/03/14 04:57:39;;;;;;;51.27;21.50;;;-0.80;69.80;;;-1.17;53.22;96422.72;4929706;29;20654;-60
2022/03/14 05:00:09;;;;;;;40.70;18.97;;;-0.80;70.30;;;-1.17;52.93;96427.06;4932629;29;20525;-58
2022/03/14 05:02:36;;;;;;;43.80;19.40;;;-0.80;70.40;;;-1.16;52.57;96437.34;4934223;29;20484;-57
2022/03/14 05:05:04;;;;;;;45.17;19.47;;;-0.80;70.30;;;-1.15;52.80;96433.88;4930518;29;20446;-56
2022/03/14 05:07:31;;;;;;;42.67;20.53;;;-0.80;70.30;;;-1.12;52.84;96444.13;4934328;28;20794;-56
2022/03/14 05:09:59;;;;;;;49.50;21.00;;;-0.70;70.40;;;-1.06;52.70;96439.75;4928228;29;20769;-57
2022/03/14 05:12:28;;;;;;;51.77;19.77;;;-0.70;70.10;;;-0.98;52.75;96440.44;4939715;29;20477;-59
2022/03/14 05:14:57;;;;;;;49.80;19.80;;;-0.60;70.50;;;-0.91;52.01;96450.63;4945557;29;20479;-59
2022/03/14 05:17:25;;;;;;;39.07;18.40;;;-0.50;69.80;;;-0.87;51.98;96446.22;4940523;28;20548;-57
2022/03/14 05:19:52;;;;;;;36.63;20.00;;;-0.50;69.70;;;-0.84;51.89;96448.75;4934654;29;20457;-60
2022/03/14 05:22:20;;;;;;;45.40;20.63;;;-0.40;69.70;;;-0.80;52.06;96450.41;4934883;29;20492;-56
2022/03/14 05:24:47;;;;;;;46.53;20.70;;;-0.40;69.30;;;-0.70;51.85;96451.03;4938299;29;20723;-60
2022/03/14 05:27:15;;;;;;;44.03;20.87;;;-0.30;69.00;;;-0.61;51.38;96457.75;4936517;29;20461;-57
2022/03/14 05:29:42;;;;;;;51.17;21.30;;;-0.20;68.60;;;-0.57;51.51;96459.41;4932863;29;20479;-56
2022/03/14 05:32:11;;;;;;;52.90;27.13;;;-0.20;68.40;;;-0.52;50.98;96469.66;4933669;29;20993;-60
2022/03/14 05:34:38;;;;;;;81.83;27.30;;;-0.10;67.90;;;-0.49;51.05;96473.00;4935599;29;20446;-55
2022/03/14 05:37:05;;;;;;;42.90;22.77;;;-0.10;67.80;;;-0.47;50.99;96468.66;4937893;29;20529;-54
2022/03/14 05:39:33;;;;;;;53.13;23.33;;;-0.10;67.50;;;-0.44;51.05;96478.06;4930494;29;20456;-58
2022/03/14 05:42:00;;;;;;;47.10;23.27;;;-0.10;67.50;;;-0.42;51.17;96474.59;4934394;29;20493;-55
2022/03/14 05:44:28;;;;;;;42.30;22.37;;;-0.10;67.50;;;-0.38;51.09;96480.53;4939128;29;20460;-59
2022/03/14 05:46:55;;;;;;;52.17;24.10;;;0.00;67.60;;;-0.34;51.19;96481.31;4944890;28;20468;-55
2022/03/14 05:49:24;;;;;;;45.80;21.60;;;0.00;67.50;;;-0.31;51.08;96478.66;4940814;28;21054;-61
2022/03/14 05:51:52;;;;;;;45.47;22.00;;;0.00;67.60;;;-0.28;50.69;96481.16;4936077;29;20970;-59
2022/03/14 05:54:19;;;;;;;50.43;24.57;;;0.10;67.10;;;-0.24;51.11;96496.56;4941096;28;20535;-59
2022/03/14 05:56:46;;;;;;;50.40;22.40;;;0.10;67.20;;;-0.18;50.82;96487.84;4944557;28;20474;-59
2022/03/14 05:59:14;;;;;;;37.03;20.40;;;0.10;67.40;;;-0.10;50.86;96492.84;4939548;28;20481;-61
2022/03/14 06:01:42;;;;;;;46.50;20.90;;;0.30;67.50;;;0.01;50.82;96490.00;4933959;29;20489;-60
2022/03/14 06:04:10;;;;;;;41.40;19.27;;;0.30;67.70;;;0.15;51.02;96493.97;4939971;29;20480;-59
2022/03/14 06:06:38;;;;;;;33.63;16.80;;;0.40;67.30;;;0.34;50.19;96493.50;4942663;29;20890;-60
2022/03/14 06:09:06;;;;;;;40.83;15.97;;;0.60;66.30;;;0.54;50.14;96495.63;4943632;28;20472;-60
2022/03/14 06:11:34;;;;;;;44.00;17.67;;;0.80;65.40;;;0.80;49.74;96496.69;4934889;29;20484;-57
2022/03/14 06:14:02;;;;;;;32.63;16.07;;;1.00;65.40;;;1.09;48.99;96492.50;4937840;29;20501;-56
2022/03/14 06:16:29;;;;;;;45.03;19.23;;;1.30;64.90;;;1.39;49.17;96501.13;4943361;28;20453;-58
2022/03/14 06:18:56;;;;;;;49.97;18.40;;;1.60;64.30;;;1.73;48.03;96510.53;4942828;29;20539;-60
2022/03/14 06:21:24;;;;;;;35.33;16.23;;;1.80;63.60;;;2.02;48.03;96508.81;4933475;28;20548;-58
2022/03/14 06:23:53;;;;;;;38.30;18.33;;;2.10;62.20;;;2.29;47.72;96510.56;4936588;29;20512;-60
2022/03/14 06:26:20;;;;;;;33.27;18.50;;;2.40;61.30;;;2.56;46.93;96509.72;4942505;29;20452;-57
2022/03/14 06:28:47;;;;;;;35.13;17.70;;;2.70;59.90;;;2.84;45.38;96515.66;4944947;28;20472;-55
2022/03/14 06:31:16;;;;;;;35.33;18.47;;;3.00;59.60;;;3.14;45.16;96510.31;4941228;28;20591;-55
2022/03/14 06:33:43;;;;;;;34.33;18.77;;;3.20;59.00;;;3.43;45.07;96508.44;4939195;29;20997;-57
2022/03/14 06:36:10;;;;;;;36.73;18.43;;;3.50;58.00;;;3.71;45.37;96510.84;4945080;28;20484;-60
2022/03/14 06:38:38;;;;;;;26.97;16.03;;;3.80;57.70;;;4.00;44.31;96518.47;4949508;28;20534;-59
2022/03/14 06:41:07;;;;;;;32.77;19.37;;;4.10;56.70;;;4.28;43.85;96520.84;4948076;29;20922;-55
2022/03/14 06:43:35;;;;;;;57.70;18.67;;;4.30;56.10;;;4.55;43.91;96515.44;4939335;29;20994;-54
2022/03/14 06:46:04;;;;;;;44.03;18.27;;;4.60;55.50;;;4.84;43.04;96522.06;4942545;29;20509;-58
2022/03/14 06:48:31;;;;;;;55.93;22.30;;;4.90;54.80;;;5.14;42.60;96532.09;4946623;28;20477;-57
2022/03/14 06:50:59;;;;;;;42.07;20.83;;;5.20;54.20;;;5.44;42.50;96527.34;4946154;28;20471;-56
2022/03/14 06:53:26;;;;;;;52.07;19.90;;;5.50;54.10;;;5.74;42.39;96539.94;4937313;29;20484;-59
2022/03/14 06:55:53;;;;;;;37.23;18.90;;;5.70;53.50;;;6.05;40.57;96534.19;4941534;28;20460;-59
2022/03/14 06:58:22;;;;;;;52.87;17.30;;;6.10;51.40;;;6.33;41.42;96537.28;4945807;29;20488;-54
2022/03/14 07:00:50;;;;;;;33.23;17.23;;;6.30;52.10;;;6.61;40.12;96537.66;4946482;29;20535;-56
2022/03/14 07:03:17;;;;;;;49.87;18.13;;;6.60;50.80;;;6.90;40.20;96537.16;4938935;28;20491;-58
2022/03/14 07:05:44;;;;;;;39.90;19.30;;;6.90;50.90;;;7.18;39.67;96534.84;4939614;29;20457;-57
2022/03/14 07:08:12;;;;;;;38.57;19.70;;;7.10;50.40;;;7.54;39.41;96546.13;4943046;29;20476;-59
2022/03/14 07:10:40;;;;;;;39.03;20.13;;;7.50;50.50;;;7.89;38.96;96543.44;4944876;28;20557;-55
2022/03/14 07:13:07;;;;;;;47.17;19.77;;;7.80;49.40;;;8.25;38.85;96535.34;4943346;28;20472;-60
2022/03/14 07:15:36;;;;;;;40.77;18.20;;;8.10;49.30;;;8.65;38.15;96539.34;4940175;29;20512;-59
2022/03/14 07:18:03;;;;;;;44.97;18.93;;;8.50;48.60;;;9.04;37.85;96538.81;4943777;28;20473;-56
2022/03/14 07:20:30;;;;;;;50.83;19.20;;;8.90;48.10;;;9.46;37.39;96536.38;4945434;29;20965;-56
2022/03/14 07:22:59;;;;;;;45.93;19.67;;;9.30;47.40;;;9.92;37.24;96544.13;4935993;29;20552;-56
2022/03/14 07:25:27;;;;;;;40.90;18.60;;;9.70;47.40;;;10.41;36.55;96537.63;4939190;29;20957;-60
2022/03/14 07:27:55;;;;;;;40.20;19.57;;;10.20;46.00;;;10.92;37.17;96539.59;4941568;29;20472;-60
2022/03/14 07:30:23;;;;;;;35.73;18.67;;;10.70;46.30;;;11.41;35.15;96536.31;4940854;28;20973;-59
2022/03/14 07:32:51;;;;;;;48.57;20.60;;;11.20;44.00;;;11.90;36.18;96539.16;4943831;28;20481;-56
2022/03/14 07:35:19;;;;;;;42.57;19.63;;;11.60;45.00;;;12.36;36.26;96535.97;4936936;29;20468;-60
2022/03/14 07:37:47;;;;;;;46.80;20.23;;;12.10;45.10;;;12.83;35.89;96539.63;4941727;28;20477;-56
2022/03/14 07:40:14;;;;;;;41.10;20.33;;;12.50;44.70;;;13.33;34.91;96538.63;4946137;28;20456;-56
2022/03/14 07:42:43;;;;;;;40.87;18.80;;;13.10;43.40;;;13.78;34.30;96541.38;4948944;28;21017;-58
2022/03/14 07:45:10;;;;;;;38.03;21.23;;;13.60;42.50;;;14.20;33.25;96538.16;4939684;29;20877;-59
2022/03/14 07:47:39;;;;;;;35.80;21.17;;;14.00;40.60;;;14.58;31.70;96548.34;4940083;29;20798;-56
2022/03/14 07:50:09;;;;;;;39.13;21.97;;;14.60;39.10;;;14.86;32.03;96543.50;4941762;29;20486;-57
2022/03/14 07:52:37;;;;;;;40.07;23.13;;;14.90;39.50;;;15.14;31.82;96538.59;4946668;28;21061;-60
2022/03/14 07:55:06;;;;;;;38.63;23.13;;;15.30;38.30;;;15.46;30.80;96537.69;4943396;29;20556;-57
2022/03/14 07:57:34;;;;;;;44.70;24.40;;;15.70;37.50;;;15.75;30.33;96538.75;4941508;29;20515;-60
2022/03/14 08:00:01;;;;;;;33.47;22.40;;;16.00;37.10;;;16.06;30.01;96538.78;4943145;29;20452;-60
2022/03/14 08:02:29;;;;;;;33.53;21.63;;;16.30;36.50;;;16.31;29.84;96533.97;4939768;29;20536;-55
2022/03/14 08:04:56;;;;;;;46.53;19.57;;;16.50;35.10;;;16.49;30.01;96535.03;4939199;29;20457;-57
2022/03/14 08:07:26;;;;;;;41.80;21.80;;;16.80;36.20;;;16.74;29.50;96535.50;4936413;29;20530;-59
2022/03/14 08:09:54;;;;;;;41.57;23.47;;;17.00;36.20;;;16.93;28.78;96526.78;4932970;29;20861;-56
2022/03/14 08:12:22;;;;;;;47.23;22.60;;;17.10;35.00;;;17.08;28.56;96537.81;4933603;29;20469;-60
2022/03/14 08:14:50;;;;;;;34.60;19.03;;;17.30;34.50;;;17.27;28.02;96531.66;4938136;29;20457;-58
2022/03/14 08:17:17;;;;;;;44.70;23.00;;;17.40;33.30;;;17.35;27.59;96534.47;4932963;29;20982;-59
2022/03/14 08:19:45;;;;;;;42.30;22.47;;;17.50;33.40;;;17.44;26.34;96537.25;4938578;29;20496;-59
2022/03/14 08:22:12;;;;;;;40.70;23.83;;;17.60;31.70;;;17.51;24.44;96530.41;4940085;29;21059;-60
2022/03/14 08:24:41;;;;;;;33.90;23.60;;;17.70;30.20;;;17.41;25.58;96535.72;4934946;28;20461;-57
2022/03/14 08:27:08;;;;;;;46.50;23.93;;;17.60;30.00;;;17.31;26.75;96533.06;4931313;29;20461;-58
2022/03/14 08:29:35;;;;;;;40.57;24.30;;;17.60;31.30;;;17.29;26.51;96531.53;4936125;29;20456;-59
2022/03/14 08:32:02;;;;;;;54.07;23.57;;;17.50;31.50;;;17.27;26.24;96536.16;4930710;29;20457;-59
2022/03/14 08:34:30;;;;;;;47.97;24.43;;;17.50;30.80;;;17.31;26.24;96533.06;4941650;29;20464;-58
2022/03/14 08:36:57;;;;;;;36.80;23.00;;;17.50;30.80;;;17.27;24.78;96526.34;4930993;29;20503;-58
2022/03/14 08:39:26;;;;;;;33.73;21.70;;;17.40;29.20;;;17.19;25.02;96528.88;4938077;29;20539;-56
2022/03/14 08:41:54;;;;;;;44.30;23.00;;;17.30;29.80;;;17.01;24.50;96526.09;4938803;29;20588;-57
2022/03/14 08:44:22;;;;;;;38.53;23.57;;;17.10;28.90;;;16.93;25.64;96529.44;4941073;28;20835;-59
2022/03/14 08:46:49;;;;;;;35.53;21.87;;;17.00;30.10;;;17.03;25.70;96526.78;4934585;29;20456;-58
2022/03/14 08:49:17;;;;;;;42.67;21.97;;;17.00;30.50;;;17.17;25.01;96531.66;4938518;29;20477;-59
2022/03/14 08:51:44;;;;;;;45.83;23.30;;;17.00;29.80;;;17.16;23.97;96529.97;4939636;28;20476;-60
2022/03/14 08:54:11;;;;;;;29.87;21.57;;;17.00;29.20;;;16.94;24.61;96532.91;4939296;28;20579;-55
2022/03/14 08:56:39;;;;;;;67.43;23.40;;;16.80;29.10;;;16.72;23.56;96531.31;4942386;29;20466;-58
2022/03/14 08:59:10;;;;;;;38.97;24.10;;;16.70;28.40;;;16.68;25.24;96533.41;4937134;29;20508;-60
2022/03/14 09:01:38;;;;;;;39.80;22.40;;;16.50;29.50;;;16.71;22.34;96533.13;4940092;29;20445;-59
2022/03/14 09:04:05;;;;;;;51.13;24.40;;;16.50;27.90;;;16.72;24.28;96526.00;4940787;29;20473;-58
2022/03/14 09:06:36;;;;;;;53.43;23.13;;;16.50;29.10;;;16.77;23.43;96526.44;4940643;28;20458;-57
2022/03/14 09:09:04;;;;;;;40.03;23.57;;;16.60;28.80;;;16.93;24.50;96524.13;4933780;29;20512;-59
2022/03/14 09:11:31;;;;;;;35.70;21.80;;;16.70;29.60;;;17.10;23.70;96525.25;4939349;28;20462;-57
2022/03/14 09:13:58;;;;;;;40.03;20.80;;;16.80;28.20;;;17.21;24.34;96513.59;4941665;29;20476;-56
2022/03/14 09:16:28;;;;;;;37.23;20.83;;;16.90;29.10;;;17.34;23.73;96516.00;4941370;29;20459;-60
2022/03/14 09:18:55;;;;;;;36.43;19.10;;;17.10;28.40;;;17.44;23.35;96521.31;4937668;28;20483;-56
2022/03/14 09:21:26;;;;;;;22.77;14.50;;;17.10;28.70;;;17.38;23.34;96514.72;4935456;29;20469;-57
2022/03/14 09:23:53;;;;;;;28.70;15.60;;;17.20;28.00;;;17.36;23.14;96508.72;4942391;29;21018;-56
2022/03/14 09:26:21;;;;;;;29.33;15.07;;;17.20;28.20;;;17.42;23.38;96518.78;4941165;29;20460;-59
2022/03/14 09:28:50;;;;;;;27.53;17.00;;;17.20;28.20;;;17.54;23.56;96507.00;4932258;29;20926;-58
2022/03/14 09:31:17;;;;;;;21.20;14.10;;;17.30;28.40;;;17.42;22.91;96510.81;4928058;29;20925;-59
2022/03/14 09:33:46;;;;;;;23.97;14.57;;;17.30;28.10;;;17.27;23.05;96510.38;4935362;29;21120;-60
2022/03/14 09:36:13;;;;;;;20.80;10.50;;;17.20;28.20;;;16.97;23.25;96509.56;4936449;29;20454;-57
2022/03/14 09:38:41;;;;;;;21.07;12.10;;;17.00;27.60;;;16.69;22.92;96508.50;4933720;28;20894;-59
2022/03/14 09:41:08;;;;;;;13.57;9.83;;;16.70;27.30;;;16.42;22.87;96515.31;4932094;29;20464;-56
2022/03/14 09:43:39;;;;;;;14.00;9.70;;;16.40;27.20;;;16.30;23.51;96511.09;4937068;29;20500;-59
2022/03/14 09:46:06;;;;;;;11.13;9.70;;;16.30;28.10;;;16.41;23.52;96510.97;4938986;28;20461;-60
2022/03/14 09:48:37;;;;;;;10.97;7.77;;;16.30;28.40;;;16.51;22.79;96507.50;4938364;29;20481;-57
2022/03/14 09:51:06;;;;;;;13.87;6.13;;;16.30;27.40;;;16.45;22.90;96515.03;4930231;29;20454;-60
2022/03/14 09:53:34;;;;;;;5.40;4.90;;;16.30;27.50;;;16.34;23.45;96506.34;4934017;29;20479;-57
2022/03/14 09:56:02;;;;;;;6.90;6.20;;;16.30;27.90;;;16.42;23.29;96519.75;4934639;29;20450;-56
2022/03/14 09:58:29;;;;;;;9.70;6.53;;;16.30;27.90;;;16.37;23.32;96506.91;4931687;29;20520;-57
2022/03/14 10:01:04;;;;;;;14.70;7.60;;;16.20;27.60;;;16.29;22.68;96501.44;4932494;29;20831;-60
2022/03/14 10:03:32;;;;;;;9.70;6.43;;;16.20;27.40;;;16.17;21.73;96494.53;4934333;29;20496;-58
2022/03/14 10:05:59;;;;;;;9.30;6.03;;;16.10;26.70;;;16.02;23.44;96502.88;4926326;29;20458;-60
2022/03/14 10:08:28;;;;;;;10.87;6.70;;;15.90;27.60;;;15.80;23.53;96503.91;4934444;29;20465;-59
2022/03/14 10:10:55;;;;;;;17.83;7.90;;;15.80;28.10;;;15.52;22.65;96506.22;4931184;28;20982;-57
2022/03/14 10:13:22;;;;;;;23.33;8.23;;;15.50;27.40;;;15.24;23.18;96497.06;4935062;29;20480;-57